Sparks, Maryland
Current Conditions -  °F | °C
As of 6:20 AM on Monday 22 Dec 2014 (Local Time) from KDMW Reporting Station
Broken Clouds Broken Clouds  
Wind Chill: 25°   Ceiling: 8500
Heat Index: 25°   Visibility: 10mi
Dew Point: 19°   Wind: 3mph
Humidity: 80%   Direction: 60°ENE
Pressure: 30.25"   Gusts: NA
Location:  39.5472°N, 76.6725°W
Report Text: KDMW 221120Z AUTO 06003KT 10SM SCT041 BKN085 M04/M07 A3025 RMK AO2
Loading
Personal Weather Stations






























Interactive Weather Map New forecast layout! Learn more

10-Day Weather Forecast

Advertisements
Track Severe Weather on mobile